createdAt,value
2024-01-30T00:00:56.551Z,12.83
2024-01-30T00:03:25.086Z,12.70
2024-01-30T00:05:55.577Z,13.00
2024-01-30T00:08:25.401Z,13.50
2024-01-30T00:10:53.920Z,15.00
2024-01-30T00:13:22.527Z,12.90
2024-01-30T00:15:51.277Z,13.77
2024-01-30T00:18:21.219Z,14.50
2024-01-30T00:20:49.695Z,14.90
2024-01-30T00:23:18.155Z,12.40
2024-01-30T00:25:46.642Z,11.60
2024-01-30T00:28:15.144Z,13.43
2024-01-30T00:30:43.702Z,12.33
2024-01-30T00:33:12.342Z,11.30
2024-01-30T00:35:42.236Z,12.50
2024-01-30T00:38:10.772Z,12.53
2024-01-30T00:40:39.246Z,12.97
2024-01-30T00:43:07.813Z,12.93
2024-01-30T00:45:36.913Z,10.90
2024-01-30T00:48:06.262Z,11.33
2024-01-30T00:50:34.880Z,14.87
2024-01-30T00:53:05.096Z,14.50
2024-01-30T00:55:33.560Z,14.07
2024-01-30T00:58:02.080Z,13.27
2024-01-30T01:00:30.677Z,14.80
2024-01-30T01:02:59.236Z,14.40
2024-01-30T01:05:28.011Z,14.60
2024-01-30T01:07:56.487Z,15.07
2024-01-30T01:10:26.449Z,12.27
2024-01-30T01:12:55.023Z,15.83
2024-01-30T01:15:23.508Z,13.17
2024-01-30T01:17:52.043Z,12.87
2024-01-30T01:20:20.561Z,15.47
2024-01-30T01:22:49.028Z,15.87
2024-01-30T01:25:17.984Z,15.07
2024-01-30T01:27:52.730Z,14.70
2024-01-30T01:30:22.915Z,16.20
2024-01-30T01:32:56.213Z,13.43
2024-01-30T01:35:25.709Z,13.43
2024-01-30T01:37:56.067Z,14.33
2024-01-30T01:40:26.105Z,14.97
2024-01-30T01:42:56.844Z,13.73
2024-01-30T01:45:25.483Z,14.83
2024-01-30T01:47:54.824Z,14.00
2024-01-30T01:50:24.185Z,15.10
2024-01-30T01:52:53.895Z,13.90
2024-01-30T01:55:25.931Z,13.93
2024-01-30T01:57:56.583Z,12.73
2024-01-30T02:00:25.680Z,13.00
2024-01-30T02:02:56.472Z,14.03
2024-01-30T02:05:26.004Z,13.93
2024-01-30T02:07:54.965Z,14.10
2024-01-30T02:10:23.636Z,16.10
2024-01-30T02:12:52.365Z,13.73
2024-01-30T02:15:22.400Z,13.57
2024-01-30T02:17:50.908Z,12.23
2024-01-30T02:20:19.484Z,12.43
2024-01-30T02:22:50.384Z,13.27
2024-01-30T02:25:19.007Z,11.83
2024-01-30T02:27:47.555Z,14.63
2024-01-30T02:30:16.278Z,11.87
2024-01-30T02:32:44.780Z,13.13
2024-01-30T02:35:13.325Z,14.53
2024-01-30T02:37:41.864Z,14.33
2024-01-30T02:40:12.283Z,14.53
2024-01-30T02:42:41.325Z,13.70
2024-01-30T02:45:11.405Z,12.57
2024-01-30T02:47:40.470Z,13.47
2024-01-30T02:50:10.008Z,14.20
2024-01-30T02:52:38.731Z,14.00
2024-01-30T02:55:08.095Z,13.23
2024-01-30T02:57:38.318Z,14.70
2024-01-30T03:00:10.437Z,13.03
2024-01-30T03:02:39.144Z,12.93
2024-01-30T03:05:10.154Z,13.97
2024-01-30T03:07:38.780Z,13.53
2024-01-30T03:10:08.110Z,14.27
2024-01-30T03:12:38.020Z,12.20
2024-01-30T03:15:07.054Z,12.70
2024-01-30T03:17:35.583Z,14.90
2024-01-30T03:20:04.976Z,13.40
2024-01-30T03:22:33.532Z,14.23
2024-01-30T03:25:02.076Z,14.43
2024-01-30T03:27:30.883Z,12.87
2024-01-30T03:30:00.741Z,13.33
2024-01-30T03:32:29.521Z,13.40
2024-01-30T03:34:59.197Z,12.80
2024-01-30T03:37:27.895Z,14.13
2024-01-30T03:39:56.492Z,12.93
2024-01-30T03:42:26.144Z,15.33
2024-01-30T03:44:56.029Z,15.07
2024-01-30T03:47:25.895Z,15.33
2024-01-30T03:49:54.421Z,15.23
2024-01-30T03:52:23.053Z,15.63
2024-01-30T03:54:51.725Z,12.70
2024-01-30T03:57:20.242Z,14.97
2024-01-30T03:59:48.707Z,15.27
2024-01-30T04:02:17.282Z,14.60
2024-01-30T04:04:47.825Z,14.73
2024-01-30T04:07:16.427Z,12.40
2024-01-30T04:09:45.093Z,15.30
2024-01-30T04:12:13.597Z,16.07
2024-01-30T04:14:42.461Z,14.00
2024-01-30T04:17:10.962Z,16.07
2024-01-30T04:19:40.679Z,15.13
2024-01-30T04:22:10.743Z,14.20
2024-01-30T04:24:39.328Z,13.50
2024-01-30T04:27:07.935Z,13.00
2024-01-30T04:29:36.394Z,11.70
2024-01-30T04:32:05.135Z,14.27
2024-01-30T04:34:33.769Z,13.70
2024-01-30T04:37:02.382Z,14.03
2024-01-30T04:39:32.238Z,13.80
2024-01-30T04:42:00.707Z,16.77
2024-01-30T04:44:29.373Z,12.77
2024-01-30T04:47:00.128Z,14.43
2024-01-30T04:49:28.766Z,14.00
2024-01-30T04:51:57.712Z,14.73
2024-01-30T04:54:26.848Z,14.97
2024-01-30T04:56:56.684Z,14.40
2024-01-30T04:59:25.179Z,13.23
2024-01-30T05:01:53.973Z,12.33
2024-01-30T05:04:23.178Z,12.23
2024-01-30T05:06:51.825Z,14.17
2024-01-30T05:09:21.242Z,15.77
2024-01-30T05:11:49.915Z,14.27
2024-01-30T05:14:20.006Z,13.13
2024-01-30T05:16:48.730Z,12.03
2024-01-30T05:19:18.394Z,13.03
2024-01-30T05:21:46.958Z,13.00
2024-01-30T05:24:15.467Z,14.23
2024-01-30T05:26:43.998Z,14.07
2024-01-30T05:29:12.457Z,13.27
2024-01-30T05:31:42.306Z,11.33
2024-01-30T05:34:10.914Z,14.60
2024-01-30T05:36:39.460Z,12.13
2024-01-30T05:39:09.319Z,13.33
2024-01-30T05:41:37.955Z,12.53
2024-01-30T05:44:06.894Z,13.30
2024-01-30T05:46:37.499Z,12.27
2024-01-30T05:49:07.423Z,14.73
2024-01-30T05:51:35.973Z,12.73
2024-01-30T05:54:05.558Z,12.70
2024-01-30T05:56:34.035Z,12.80
2024-01-30T05:59:02.518Z,12.57
2024-01-30T06:01:31.353Z,13.00
2024-01-30T06:03:59.916Z,12.90
2024-01-30T06:06:30.289Z,14.70
2024-01-30T06:08:58.795Z,15.43
2024-01-30T06:11:27.254Z,12.93
2024-01-30T06:13:55.772Z,15.53
2024-01-30T06:16:24.396Z,12.70
2024-01-30T06:18:52.916Z,14.40
2024-01-30T06:21:21.432Z,15.40
2024-01-30T06:23:51.281Z,15.77
2024-01-30T06:26:19.800Z,16.70
2024-01-30T06:28:48.255Z,16.07
2024-01-30T06:31:16.881Z,14.77
2024-01-30T06:33:45.509Z,17.17
2024-01-30T06:36:14.044Z,16.20
2024-01-30T06:38:42.620Z,14.90
2024-01-30T06:41:12.477Z,16.43
2024-01-30T06:43:40.946Z,16.30
2024-01-30T06:46:09.494Z,15.47
2024-01-30T06:48:38.183Z,14.33
2024-01-30T06:51:06.691Z,17.40
2024-01-30T06:53:35.253Z,17.13
2024-01-30T06:56:03.890Z,14.00
2024-01-30T06:58:34.156Z,15.87
2024-01-30T07:01:03.178Z,16.30
2024-01-30T07:03:31.752Z,17.83
2024-01-30T07:06:00.767Z,17.63
2024-01-30T07:08:29.262Z,15.40
2024-01-30T07:11:00.944Z,16.83
2024-01-30T07:13:30.519Z,16.80
2024-01-30T07:16:00.754Z,16.47
2024-01-30T07:18:29.284Z,14.23
2024-01-30T07:20:57.846Z,17.77
2024-01-30T07:23:26.354Z,14.83
2024-01-30T07:25:54.830Z,14.13
2024-01-30T07:28:23.477Z,19.80
2024-01-30T07:30:52.069Z,16.37
2024-01-30T07:33:21.957Z,15.87
2024-01-30T07:35:50.628Z,15.70
2024-01-30T07:38:19.141Z,15.07
2024-01-30T07:40:48.100Z,12.60
2024-01-30T07:43:16.611Z,17.13
2024-01-30T07:45:45.144Z,15.10
2024-01-30T07:48:13.892Z,14.53
2024-01-30T07:50:43.933Z,14.53
2024-01-30T07:53:12.439Z,17.50
2024-01-30T07:55:40.907Z,14.27
2024-01-30T07:58:09.442Z,13.40
2024-01-30T08:00:38.438Z,18.53
2024-01-30T08:03:07.240Z,15.77
2024-01-30T08:05:35.903Z,13.83
2024-01-30T08:08:06.228Z,16.10
2024-01-30T08:10:34.784Z,17.27
2024-01-30T08:13:03.438Z,14.53
2024-01-30T08:15:31.955Z,15.40
2024-01-30T08:18:00.515Z,12.27
2024-01-30T08:20:29.051Z,16.57
2024-01-30T08:22:57.557Z,16.53
2024-01-30T08:25:27.486Z,14.53
2024-01-30T08:27:56.138Z,14.63
2024-01-30T08:30:24.781Z,17.23
2024-01-30T08:32:53.284Z,18.77
2024-01-30T08:35:22.013Z,22.23
2024-01-30T08:37:50.567Z,24.77
2024-01-30T08:40:19.437Z,28.80
2024-01-30T08:42:49.315Z,28.90
2024-01-30T08:45:17.914Z,20.57
2024-01-30T08:47:46.582Z,17.67
2024-01-30T08:50:15.242Z,16.87
2024-01-30T08:52:44.721Z,15.00
2024-01-30T08:55:14.463Z,14.40
2024-01-30T08:57:43.121Z,14.87
2024-01-30T09:00:14.470Z,18.60
2024-01-30T09:02:43.285Z,14.00
2024-01-30T09:05:12.368Z,14.43
2024-01-30T09:07:41.007Z,15.63
2024-01-30T09:10:12.319Z,17.20
2024-01-30T09:12:42.570Z,17.03
2024-01-30T09:15:13.394Z,15.60
2024-01-30T09:17:42.005Z,14.73
2024-01-30T09:20:11.659Z,13.37
2024-01-30T09:22:40.353Z,14.90
2024-01-30T09:25:09.107Z,15.50
2024-01-30T09:27:37.604Z,14.90
2024-01-30T09:30:07.109Z,14.40
2024-01-30T09:32:36.979Z,12.97
2024-01-30T09:35:06.044Z,15.93
2024-01-30T09:37:34.756Z,14.20
2024-01-30T09:40:05.778Z,14.80
2024-01-30T09:42:37.679Z,16.40
2024-01-30T09:45:07.615Z,15.20
2024-01-30T09:47:42.925Z,17.47
2024-01-30T09:50:13.027Z,16.67
2024-01-30T09:52:41.874Z,12.00
2024-01-30T09:55:11.321Z,14.83
2024-01-30T09:57:40.212Z,13.47
2024-01-30T10:00:10.301Z,13.90
2024-01-30T10:02:40.541Z,14.03
2024-01-30T10:05:10.187Z,15.87
2024-01-30T10:07:39.020Z,14.33
2024-01-30T10:10:08.832Z,13.93
2024-01-30T10:12:37.414Z,14.87
2024-01-30T10:15:09.336Z,13.03
2024-01-30T10:17:41.893Z,14.20
2024-01-30T10:20:11.934Z,15.17
2024-01-30T10:22:41.856Z,14.10
2024-01-30T10:25:11.923Z,13.43
2024-01-30T10:27:42.535Z,12.90
2024-01-30T10:30:11.563Z,13.77
2024-01-30T10:32:40.125Z,17.50
2024-01-30T10:35:10.378Z,16.37
2024-01-30T10:37:39.146Z,14.73
2024-01-30T10:40:10.527Z,16.50
2024-01-30T10:42:41.232Z,14.87
2024-01-30T10:45:10.772Z,14.90
2024-01-30T10:47:41.456Z,12.17
2024-01-30T10:50:13.481Z,13.23
2024-01-30T10:52:43.277Z,13.90
2024-01-30T10:55:12.171Z,12.00
2024-01-30T10:57:41.151Z,13.57
2024-01-30T11:00:13.072Z,11.77
2024-01-30T11:02:43.470Z,12.87
2024-01-30T11:05:14.130Z,12.00
2024-01-30T11:07:43.481Z,13.73
2024-01-30T11:10:16.413Z,12.60
2024-01-30T11:12:47.249Z,11.73
2024-01-30T11:15:18.468Z,15.83
2024-01-30T11:17:52.577Z,14.47
2024-01-30T11:20:27.636Z,11.43
2024-01-30T11:22:58.492Z,16.20
2024-01-30T11:25:28.184Z,12.33
2024-01-30T11:27:58.085Z,13.97
2024-01-30T11:30:28.017Z,12.33
2024-01-30T11:33:07.858Z,12.90
2024-01-30T11:35:40.309Z,11.37
2024-01-30T11:38:10.471Z,13.57
2024-01-30T11:40:40.864Z,14.13
2024-01-30T11:43:11.099Z,15.83
2024-01-30T11:45:40.467Z,11.63
2024-01-30T11:48:11.765Z,12.87
2024-01-30T11:50:42.809Z,11.83
2024-01-30T11:53:11.749Z,11.53
2024-01-30T11:55:40.476Z,12.87
2024-01-30T11:58:09.554Z,12.23
2024-01-30T12:00:38.181Z,11.27
2024-01-30T12:03:08.258Z,14.53
2024-01-30T12:05:37.617Z,13.00
2024-01-30T12:08:08.486Z,12.50
2024-01-30T12:10:37.089Z,13.80
2024-01-30T12:13:06.228Z,13.20
2024-01-30T12:15:34.964Z,14.17
2024-01-30T12:18:10.593Z,13.20
2024-01-30T12:20:39.120Z,12.03
2024-01-30T12:23:09.068Z,15.60
2024-01-30T12:25:38.615Z,14.70
2024-01-30T12:28:07.541Z,14.53
2024-01-30T12:30:37.957Z,14.83
2024-01-30T12:33:09.504Z,11.80
2024-01-30T12:35:43.847Z,11.90
2024-01-30T12:38:18.923Z,12.33
2024-01-30T12:40:48.014Z,12.77
2024-01-30T12:43:24.640Z,10.63
2024-01-30T12:46:02.044Z,11.70
2024-01-30T12:48:31.603Z,12.47
2024-01-30T12:51:00.250Z,11.53
2024-01-30T12:53:30.220Z,9.77
2024-01-30T12:55:58.762Z,9.93
2024-01-30T12:58:27.620Z,15.60
2024-01-30T13:00:56.930Z,11.73
2024-01-30T13:03:25.801Z,11.43
2024-01-30T13:05:54.375Z,10.73
2024-01-30T13:08:23.473Z,11.57
2024-01-30T13:10:53.854Z,12.23
2024-01-30T13:13:22.464Z,13.17
2024-01-30T13:15:51.463Z,12.43
2024-01-30T13:18:20.255Z,13.97
2024-01-30T13:20:48.900Z,11.67
2024-01-30T13:23:17.438Z,11.97
2024-01-30T13:25:45.937Z,12.57
2024-01-30T13:28:15.879Z,12.57
2024-01-30T13:30:44.421Z,13.37
2024-01-30T13:33:13.252Z,13.17
2024-01-30T13:35:41.844Z,32.53
2024-01-30T13:38:10.337Z,15.40
2024-01-30T13:40:38.898Z,13.57
2024-01-30T13:43:07.502Z,13.63
2024-01-30T13:45:37.409Z,13.50
2024-01-30T13:48:06.377Z,13.00
2024-01-30T13:50:35.265Z,12.60
2024-01-30T13:53:04.692Z,12.70
2024-01-30T13:55:33.302Z,10.93
2024-01-30T13:58:02.600Z,13.70
2024-01-30T14:00:31.163Z,12.60
2024-01-30T14:03:01.244Z,13.13
2024-01-30T14:05:30.603Z,12.60
2024-01-30T14:07:59.806Z,12.90
2024-01-30T14:10:28.724Z,14.30
2024-01-30T14:12:57.656Z,16.67
2024-01-30T14:15:29.096Z,16.83
2024-01-30T14:18:00.362Z,12.20
2024-01-30T14:20:29.117Z,17.00
2024-01-30T14:22:57.953Z,12.03
2024-01-30T14:25:26.814Z,14.20
2024-01-30T14:27:55.916Z,15.03
2024-01-30T14:30:24.690Z,13.53
2024-01-30T14:32:53.442Z,12.43
2024-01-30T14:35:23.784Z,16.63
2024-01-30T14:37:52.398Z,12.50
2024-01-30T14:40:21.541Z,11.87
2024-01-30T14:42:50.267Z,14.00
2024-01-30T14:45:18.952Z,15.70
2024-01-30T14:47:47.933Z,14.97
2024-01-30T14:50:17.799Z,14.90
2024-01-30T14:52:47.735Z,14.33
2024-01-30T14:55:16.619Z,16.80
2024-01-30T14:57:46.473Z,14.30
2024-01-30T15:00:16.872Z,13.50
2024-01-30T15:02:47.350Z,14.83
2024-01-30T15:05:16.054Z,14.00
2024-01-30T15:07:44.918Z,16.33
2024-01-30T15:10:14.952Z,14.70
2024-01-30T15:12:43.598Z,16.27
2024-01-30T15:15:12.315Z,16.03
2024-01-30T15:17:41.451Z,14.80
2024-01-30T15:20:10.879Z,16.20
2024-01-30T15:22:41.364Z,14.47
2024-01-30T15:25:09.946Z,14.03
2024-01-30T15:27:40.674Z,12.60
2024-01-30T15:30:10.024Z,16.50
2024-01-30T15:32:38.772Z,11.33
2024-01-30T15:35:09.092Z,11.70
2024-01-30T15:37:37.907Z,16.20
2024-01-30T15:40:09.683Z,14.10
2024-01-30T15:42:39.616Z,14.60
2024-01-30T15:45:08.477Z,16.67
2024-01-30T15:47:37.783Z,14.17
2024-01-30T15:50:07.408Z,14.23
2024-01-30T15:52:36.091Z,15.97
2024-01-30T15:55:04.921Z,83.60
2024-01-30T15:57:33.857Z,23.70
2024-01-30T16:00:04.605Z,17.33
2024-01-30T16:02:33.616Z,14.40
2024-01-30T16:05:03.681Z,16.87
2024-01-30T16:07:33.945Z,23.63
2024-01-30T16:10:02.966Z,15.93
2024-01-30T16:12:31.564Z,17.10
2024-01-30T16:15:00.069Z,15.03
2024-01-30T16:17:32.683Z,16.40
2024-01-30T16:20:03.038Z,21.93
2024-01-30T16:22:31.689Z,17.17
2024-01-30T16:25:00.629Z,15.90
2024-01-30T16:27:29.449Z,15.67
2024-01-30T16:29:57.968Z,13.70
2024-01-30T16:32:26.615Z,14.50
2024-01-30T16:34:56.821Z,13.60
2024-01-30T16:37:26.269Z,15.67
2024-01-30T16:39:55.015Z,15.43
2024-01-30T16:42:23.679Z,14.93
2024-01-30T16:44:52.231Z,14.17
2024-01-30T16:47:21.454Z,14.70
2024-01-30T16:49:50.194Z,16.90
2024-01-30T16:52:21.025Z,14.83
2024-01-30T16:54:49.694Z,14.40
2024-01-30T16:57:18.244Z,16.97
2024-01-30T16:59:46.812Z,14.30
2024-01-30T17:02:15.829Z,13.47
2024-01-30T17:04:44.551Z,18.83
2024-01-30T17:07:13.202Z,17.63
2024-01-30T17:09:43.484Z,15.63
2024-01-30T17:12:14.216Z,14.73
2024-01-30T17:14:43.422Z,17.17
2024-01-30T17:17:13.951Z,18.30
2024-01-30T17:19:43.167Z,19.40
2024-01-30T17:22:12.304Z,22.27
2024-01-30T17:24:49.698Z,29.03
2024-01-30T17:27:19.954Z,14.77
2024-01-30T17:29:48.828Z,21.87
2024-01-30T17:32:17.425Z,21.70
2024-01-30T17:34:46.102Z,23.03
2024-01-30T17:37:14.813Z,21.80
2024-01-30T17:39:45.574Z,18.50
2024-01-30T17:42:14.182Z,24.20
2024-01-30T17:44:43.581Z,25.37
2024-01-30T17:47:12.170Z,29.80
2024-01-30T17:49:40.821Z,25.57
2024-01-30T17:52:09.891Z,26.17
2024-01-30T17:54:38.557Z,21.47
2024-01-30T17:57:08.528Z,20.47
2024-01-30T17:59:37.744Z,17.87
2024-01-30T18:02:06.592Z,16.00
2024-01-30T18:04:35.690Z,18.30
2024-01-30T18:07:04.513Z,16.43
2024-01-30T18:09:33.122Z,19.03
2024-01-30T18:12:01.844Z,16.33
2024-01-30T18:14:31.792Z,16.63
2024-01-30T18:17:00.336Z,18.87
2024-01-30T18:19:28.946Z,17.13
2024-01-30T18:21:57.598Z,16.27
2024-01-30T18:24:28.156Z,18.93
2024-01-30T18:26:57.065Z,19.80
2024-01-30T18:29:26.428Z,17.60
2024-01-30T18:31:56.358Z,18.83
2024-01-30T18:34:25.234Z,18.30
2024-01-30T18:36:53.915Z,16.23
2024-01-30T18:39:22.508Z,16.00
2024-01-30T18:41:51.038Z,17.47
2024-01-30T18:44:19.614Z,16.47
2024-01-30T18:46:48.677Z,18.53
2024-01-30T18:49:18.789Z,20.30
2024-01-30T18:51:52.970Z,17.67
2024-01-30T18:54:24.710Z,16.57
2024-01-30T18:56:54.845Z,18.27
2024-01-30T18:59:23.518Z,17.60
2024-01-30T19:01:52.210Z,23.57
2024-01-30T19:04:22.568Z,15.50
2024-01-30T19:06:53.156Z,12.30
2024-01-30T19:09:23.616Z,12.20
2024-01-30T19:11:52.417Z,10.03
2024-01-30T19:14:23.684Z,9.83
2024-01-30T19:16:52.194Z,10.03
2024-01-30T19:19:22.159Z,9.50
2024-01-30T19:21:50.738Z,10.30
2024-01-30T19:24:19.270Z,7.10
2024-01-30T19:26:49.160Z,10.60
2024-01-30T19:29:17.768Z,7.47
2024-01-30T19:31:46.322Z,6.63
2024-01-30T19:34:14.999Z,7.63
2024-01-30T19:36:44.892Z,7.70
2024-01-30T19:39:14.385Z,8.60
2024-01-30T19:41:45.034Z,11.50
2024-01-30T19:44:13.902Z,8.77
2024-01-30T19:46:42.410Z,13.67
2024-01-30T19:49:11.081Z,6.87
2024-01-30T19:51:39.805Z,7.23
2024-01-30T19:54:13.926Z,7.57
2024-01-30T19:56:42.462Z,6.83
2024-01-30T19:59:11.182Z,7.13
2024-01-30T20:01:39.936Z,7.07
2024-01-30T20:04:08.675Z,8.70
2024-01-30T20:06:37.287Z,6.70
2024-01-30T20:09:05.872Z,5.40
2024-01-30T20:11:35.796Z,4.57
2024-01-30T20:14:04.493Z,6.80
2024-01-30T20:16:38.756Z,6.60
2024-01-30T20:19:08.862Z,5.40
2024-01-30T20:21:38.148Z,6.77
2024-01-30T20:24:07.827Z,6.70
2024-01-30T20:26:37.780Z,5.87
2024-01-30T20:29:06.331Z,6.00
2024-01-30T20:31:34.976Z,7.37
2024-01-30T20:34:03.867Z,5.47
2024-01-30T20:36:32.430Z,6.20
2024-01-30T20:39:00.955Z,6.43
2024-01-30T20:41:29.512Z,6.30
2024-01-30T20:43:59.334Z,5.23
2024-01-30T20:46:27.875Z,6.07
2024-01-30T20:48:56.562Z,7.33
2024-01-30T20:51:25.253Z,5.90
2024-01-30T20:53:53.752Z,8.10
2024-01-30T20:56:22.290Z,8.97
2024-01-30T20:58:51.148Z,6.57
2024-01-30T21:01:21.411Z,5.97
2024-01-30T21:03:49.983Z,7.50
2024-01-30T21:06:18.549Z,7.43
2024-01-30T21:08:47.153Z,8.67
2024-01-30T21:11:15.695Z,6.37
2024-01-30T21:13:44.172Z,6.90
2024-01-30T21:16:13.411Z,5.63
2024-01-30T21:18:44.189Z,6.07
2024-01-30T21:21:13.210Z,6.13
2024-01-30T21:23:41.878Z,6.13
2024-01-30T21:26:10.717Z,5.73
2024-01-30T21:28:39.307Z,4.83
2024-01-30T21:31:10.244Z,4.93
2024-01-30T21:33:38.875Z,5.30
2024-01-30T21:36:09.493Z,5.80
2024-01-30T21:38:38.046Z,5.10
2024-01-30T21:41:06.998Z,5.63
2024-01-30T21:43:35.618Z,6.23
2024-01-30T21:46:04.654Z,5.33
2024-01-30T21:48:33.245Z,6.83
2024-01-30T21:51:02.083Z,5.93
2024-01-30T21:53:32.365Z,6.83
2024-01-30T21:56:00.862Z,8.63
2024-01-30T21:58:29.383Z,6.97
2024-01-30T22:00:57.981Z,5.40
2024-01-30T22:03:26.565Z,5.97
2024-01-30T22:05:55.077Z,6.00
2024-01-30T22:08:23.559Z,7.30
2024-01-30T22:10:53.619Z,7.70
2024-01-30T22:13:23.440Z,9.10
2024-01-30T22:15:52.117Z,6.57
2024-01-30T22:18:20.825Z,6.40
2024-01-30T22:20:49.406Z,6.23
2024-01-30T22:23:17.933Z,7.73
2024-01-30T22:25:46.502Z,6.63
2024-01-30T22:28:16.469Z,6.60
2024-01-30T22:30:45.074Z,6.63
2024-01-30T22:33:13.729Z,7.33
2024-01-30T22:35:42.487Z,7.50
2024-01-30T22:38:11.137Z,8.77
2024-01-30T22:40:39.776Z,6.17
2024-01-30T22:43:08.541Z,7.03
2024-01-30T22:45:38.437Z,8.27
2024-01-30T22:48:07.773Z,6.53
2024-01-30T22:50:36.273Z,6.17
2024-01-30T22:53:04.881Z,5.80
2024-01-30T22:55:33.551Z,5.30
2024-01-30T22:58:02.096Z,4.67
2024-01-30T23:00:30.608Z,6.03
2024-01-30T23:03:00.508Z,5.17
2024-01-30T23:05:31.173Z,6.27
2024-01-30T23:07:59.688Z,5.77
2024-01-30T23:10:28.256Z,4.90
2024-01-30T23:12:56.755Z,4.33
2024-01-30T23:15:25.400Z,4.70
2024-01-30T23:17:54.021Z,5.87
2024-01-30T23:20:23.912Z,4.20
2024-01-30T23:22:52.658Z,4.53
2024-01-30T23:25:21.171Z,5.53
2024-01-30T23:27:49.674Z,5.53
2024-01-30T23:30:18.613Z,6.57
2024-01-30T23:32:47.572Z,5.60
2024-01-30T23:35:16.305Z,4.90
2024-01-30T23:37:46.258Z,5.77
2024-01-30T23:40:15.423Z,6.57
2024-01-30T23:42:44.281Z,5.90
2024-01-30T23:45:12.848Z,5.73
2024-01-30T23:47:41.455Z,6.33
2024-01-30T23:50:10.708Z,6.37
2024-01-30T23:52:43.532Z,5.47
2024-01-30T23:55:13.684Z,5.60
2024-01-30T23:57:42.195Z,5.37
